KSPS/SPS METAR and TAF weather

Enter ICAO airport designator
Station Type Date Time Source
KSPS METAR 2020/07/03 12:52 UTC NOAA

KSPS 031252Z AUTO 15005KT 10SM CLR 23/22 A3000 RMK AO2 SLP142 T02330217


Station Type Date Time Source
KSPS Decoded METAR 2020/07/03 12:52 UTC NOAA

WICHITA FALLS SHEPPARD AFB, TX, United States (KSPS) 33-59N 98-30W 308M
Jul 03, 2020 - 08:52 AM EDT / 2020.07.03 1252 UTC
Wind: from the SSE (150 degrees) at 6 MPH (5 KT):0
Visibility: 10 mile(s):0
Sky conditions: clear
Temperature: 73.9 F (23.3 C)
Dew Point: 71.1 F (21.7 C)
Relative Humidity: 90%
Pressure (altimeter): 30 in. Hg (1015 hPa)
ob: KSPS 031252Z AUTO 15005KT 10SM CLR 23/22 A3000 RMK AO2 SLP142 T02330217
cycle: 13

Station Type Date Time Source
KSPS TAF 2020/07/03 12:22 UTC NOAA

TAF KSPS 031120Z 0312/0412 VRB04KT P6SM SCT250
FM032300 13007KT P6SM FEW250
FM040800 VRB04KT P6SM FEW250

Example: see airport list